Time;durP1;ratioP1;P1;durP2;ratioP2;P2;SDS_P1;SDS_P2;PMS_P1;PMS_P2;Temp;Humidity;BMP_temperature;BMP_pressure;BME280_temperature;BME280_humidity;BME280_pressure;Samples;Min_cycle;Max_cycle;Signal;HPM_P1;HPM_P2
2022/05/24 00:01:16;;;;;;;6.10;5.90;;;;;;;12.15;98.68;100466.31;5033655;28;20155;-59
2022/05/24 00:03:41;;;;;;;6.25;6.00;;;;;;;12.07;99.86;100447.78;5032972;28;20049;-60
2022/05/24 00:06:07;;;;;;;5.97;5.78;;;;;;;12.04;99.78;100454.28;5052717;28;20068;-60
2022/05/24 00:08:33;;;;;;;6.00;5.80;;;;;;;12.12;99.40;100451.56;5037657;28;20060;-60
2022/05/24 00:10:59;;;;;;;5.82;5.63;;;;;;;12.09;99.19;100445.75;5032287;28;20021;-61
2022/05/24 00:13:25;;;;;;;6.10;5.90;;;;;;;12.02;100.00;100442.19;5032538;28;20033;-61
2022/05/24 00:15:50;;;;;;;6.10;5.90;;;;;;;12.01;100.00;100445.88;5033310;28;20018;-61
2022/05/24 00:18:22;;;;;;;6.10;5.90;;;;;;;12.09;100.00;100443.94;5033134;28;20022;-61
2022/05/24 00:20:51;;;;;;;6.07;5.88;;;;;;;12.03;100.00;100449.97;5033154;28;20125;-60
2022/05/24 00:23:17;;;;;;;6.10;5.90;;;;;;;11.99;100.00;100453.22;5030830;28;20042;-61
2022/05/24 00:25:48;;;;;;;6.00;5.80;;;;;;;11.90;100.00;100444.53;5033253;28;20033;-61
2022/05/24 00:28:15;;;;;;;6.05;5.82;;;;;;;11.83;100.00;100448.94;5020670;28;20023;-62
2022/05/24 00:30:43;;;;;;;6.10;5.90;;;;;;;11.83;100.00;100456.91;5033192;28;20381;-61
2022/05/24 00:33:09;;;;;;;6.40;6.10;;;;;;;11.82;100.00;100456.06;5034496;28;20083;-61
2022/05/24 00:35:35;;;;;;;6.20;5.90;;;;;;;11.84;100.00;100446.09;5032657;28;20025;-60
2022/05/24 00:38:00;;;;;;;5.95;5.75;;;;;;;11.88;100.00;100452.66;5032853;28;20026;-60
2022/05/24 00:40:46;;;;;;;6.00;5.80;;;;;;;11.88;100.00;100455.31;5033153;28;20036;-60
2022/05/24 00:43:30;;;;;;;6.07;5.88;;;;;;;11.79;100.00;100453.75;5026267;28;20021;-60
2022/05/24 00:46:22;;;;;;;6.30;6.00;;;;;;;11.70;100.00;100457.50;5032402;28;20122;-60
2022/05/24 00:49:00;;;;;;;6.00;5.80;;;;;;;11.82;100.00;100449.91;5026251;28;20068;-60
2022/05/24 00:51:40;;;;;;;6.32;6.03;;;;;;;11.77;100.00;100450.47;5032980;28;20366;-61
2022/05/24 00:54:05;;;;;;;5.95;5.75;;;;;;;11.75;100.00;100452.47;5032528;28;20041;-60
2022/05/24 00:56:53;;;;;;;6.10;5.90;;;;;;;11.82;100.00;100456.06;5032569;28;20068;-61
2022/05/24 00:59:41;;;;;;;6.28;6.00;;;;;;;11.86;100.00;100460.00;5031796;28;20017;-60
2022/05/24 01:02:06;;;;;;;6.40;6.10;;;;;;;11.82;100.00;100444.59;5032245;28;20025;-61
2022/05/24 01:04:32;;;;;;;6.40;6.10;;;;;;;11.77;100.00;100453.13;5032378;28;20401;-60
2022/05/24 01:06:58;;;;;;;6.00;5.80;;;;;;;11.83;100.00;100452.41;5032490;28;20104;-61
2022/05/24 01:09:29;;;;;;;6.25;5.97;;;;;;;11.77;100.00;100453.13;5032463;28;20156;-60
2022/05/24 01:12:01;;;;;;;6.05;5.85;;;;;;;11.74;100.00;100452.63;5031819;28;20017;-60
2022/05/24 01:14:27;;;;;;;6.03;5.82;;;;;;;11.74;100.00;100464.09;5034574;28;20607;-60
2022/05/24 01:16:55;;;;;;;6.00;5.80;;;;;;;11.68;100.00;100456.88;5033372;28;20033;-59
2022/05/24 01:19:29;;;;;;;6.30;6.00;;;;;;;11.62;100.00;100461.09;5032296;28;20106;-61
2022/05/24 01:22:00;;;;;;;6.10;5.90;;;;;;;11.57;100.00;100447.53;5029333;28;20087;-60
2022/05/24 01:24:39;;;;;;;5.90;5.70;;;;;;;11.57;100.00;100457.31;5032304;28;20026;-60
2022/05/24 01:27:05;;;;;;;6.50;6.20;;;;;;;11.43;100.00;100464.28;5031099;28;20139;-60
2022/05/24 01:29:31;;;;;;;5.90;5.70;;;;;;;11.47;100.00;100459.44;5027745;28;20025;-61
2022/05/24 01:37:29;;;;;;;5.75;5.55;;;;;;;11.32;100.00;100454.94;5032114;28;20507;-62
2022/05/24 01:39:59;;;;;;;5.80;5.60;;;;;;;11.31;100.00;100457.75;5032050;28;20025;-60
2022/05/24 01:42:26;;;;;;;6.30;6.03;;;;;;;11.32;100.00;100456.75;5031256;28;20029;-64
2022/05/24 01:45:05;;;;;;;6.03;5.82;;;;;;;11.27;100.00;100457.28;5031736;28;20045;-60
2022/05/24 01:47:32;;;;;;;6.20;5.93;;;;;;;11.26;100.00;100455.66;5031751;28;20033;-61
2022/05/24 01:50:05;;;;;;;5.75;5.55;;;;;;;11.25;100.00;100456.66;5039279;28;20037;-61
2022/05/24 01:52:36;;;;;;;5.90;5.70;;;;;;;11.21;100.00;100465.16;5032632;28;20021;-60
2022/05/24 01:55:11;;;;;;;5.78;5.57;;;;;;;11.18;100.00;100460.22;5018477;28;20045;-61
2022/05/24 01:57:40;;;;;;;6.28;6.00;;;;;;;11.20;100.00;100460.84;5022920;28;20029;-64
2022/05/24 02:00:09;;;;;;;6.30;6.00;;;;;;;11.18;100.00;100468.19;5031945;28;20036;-60
2022/05/24 02:02:35;;;;;;;6.10;5.88;;;;;;;11.04;100.00;100472.44;5031406;28;20030;-60
2022/05/24 02:05:00;;;;;;;6.00;5.80;;;;;;;11.06;100.00;100467.78;5031929;28;20028;-60
2022/05/24 02:07:27;;;;;;;6.35;6.05;;;;;;;11.06;100.00;100468.59;5031294;28;20030;-60
2022/05/24 02:09:55;;;;;;;6.28;5.97;;;;;;;11.09;100.00;100470.09;5030918;28;20034;-61
2022/05/24 02:12:44;;;;;;;6.00;5.80;;;;;;;11.03;100.00;100476.94;5031702;28;20100;-61
2022/05/24 02:15:21;;;;;;;6.25;5.97;;;;;;;10.98;100.00;100473.16;5031610;28;20045;-60
2022/05/24 02:18:17;;;;;;;6.05;5.85;;;;;;;10.92;100.00;100466.72;5031174;28;20025;-61
2022/05/24 02:20:45;;;;;;;6.60;6.30;;;;;;;10.91;100.00;100466.91;5031538;28;20508;-61
2022/05/24 02:23:15;;;;;;;5.95;5.75;;;;;;;10.94;100.00;100471.84;5031462;28;20033;-61
2022/05/24 02:25:40;;;;;;;6.47;6.18;;;;;;;10.94;100.00;100477.16;5041706;28;20029;-61
2022/05/24 02:28:08;;;;;;;6.00;5.80;;;;;;;10.91;100.00;100470.38;5033859;28;20028;-61
2022/05/24 02:30:35;;;;;;;6.07;5.88;;;;;;;10.96;100.00;100473.34;5029925;28;20034;-61
2022/05/24 02:33:01;;;;;;;6.10;5.90;;;;;;;11.05;100.00;100461.66;5031270;28;20377;-60
2022/05/24 02:35:27;;;;;;;6.00;5.80;;;;;;;11.13;100.00;100467.88;5031315;28;20092;-61
2022/05/24 02:37:52;;;;;;;6.07;5.88;;;;;;;11.08;100.00;100477.19;5030673;28;20037;-61
2022/05/24 02:43:03;;;;;;;6.07;5.88;;;;;;;11.35;100.00;100481.13;5030383;28;20095;-60
2022/05/24 02:45:28;;;;;;;5.85;5.65;;;;;;;11.83;100.00;100478.16;5031275;28;20049;-61
2022/05/24 02:47:54;;;;;;;6.30;6.00;;;;;;;11.95;100.00;100478.50;5032248;28;20492;-61
2022/05/24 02:50:21;;;;;;;6.30;6.00;;;;;;;12.37;100.00;100485.78;5023687;28;20473;-61
2022/05/24 02:52:47;;;;;;;6.30;6.00;;;;;;;12.69;100.00;100484.47;5032803;28;20067;-60
2022/05/24 02:55:14;;;;;;;6.10;5.90;;;;;;;12.66;100.00;100483.03;5033978;28;20121;-61
2022/05/24 02:57:40;;;;;;;6.30;6.00;;;;;;;12.71;100.00;100482.47;5035249;28;20491;-60
2022/05/24 03:00:11;;;;;;;6.63;6.32;;;;;;;13.14;98.77;100485.91;5033728;28;20104;-61
2022/05/24 03:02:39;;;;;;;6.20;6.00;;;;;;;13.57;96.25;100483.19;5024871;28;20040;-61
2022/05/24 03:05:07;;;;;;;6.40;6.10;;;;;;;14.15;93.36;100490.91;5034826;28;20036;-59
2022/05/24 03:10:17;;;;;;;;;;;;;;;16.43;81.41;100483.25;5034239;28;20075;-62
2022/05/24 03:15:28;;;;;;;6.25;6.00;;;;;;;19.44;66.71;100484.88;5035234;28;20132;-61
2022/05/24 03:17:54;;;;;;;6.40;6.10;;;;;;;20.25;63.31;100480.44;5034102;28;20072;-61
2022/05/24 03:20:20;;;;;;;6.72;6.43;;;;;;;20.05;62.41;100491.63;5033249;28;20109;-62
2022/05/24 03:22:46;;;;;;;6.63;6.32;;;;;;;20.84;59.13;100486.41;5033094;28;20539;-62
2022/05/24 03:25:12;;;;;;;6.80;6.50;;;;;;;19.84;61.54;100492.25;5034330;28;20033;-62
2022/05/24 03:27:37;;;;;;;6.80;6.50;;;;;;;20.62;59.57;100490.84;5031959;28;20564;-61
2022/05/24 03:30:04;;;;;;;6.55;6.25;;;;;;;22.39;53.42;100491.91;5034269;28;20029;-61
2022/05/24 03:32:29;;;;;;;6.70;6.40;;;;;;;23.35;50.13;100493.88;5040920;28;20025;-62
2022/05/24 03:34:55;;;;;;;6.90;6.60;;;;;;;21.28;53.07;100493.91;5023367;28;20025;-62
2022/05/24 03:37:21;;;;;;;6.88;6.57;;;;;;;21.28;54.83;100493.91;5034134;28;20060;-61
2022/05/24 03:39:46;;;;;;;6.60;6.30;;;;;;;23.09;49.63;100503.72;5033974;28;20037;-61
2022/05/24 03:42:13;;;;;;;6.85;6.55;;;;;;;24.39;46.85;100514.81;5033530;28;20408;-62
2022/05/24 03:44:38;;;;;;;6.90;6.60;;;;;;;23.75;46.21;100514.22;5032381;28;20084;-61
2022/05/24 03:47:05;;;;;;;6.80;6.50;;;;;;;24.53;43.89;100509.69;5032425;28;20065;-61
2022/05/24 03:49:31;;;;;;;7.10;6.80;;;;;;;24.97;42.02;100506.50;5034332;28;20055;-62
2022/05/24 03:51:56;;;;;;;7.00;6.70;;;;;;;25.65;41.32;100515.19;5036209;28;20033;-63
2022/05/24 03:54:22;;;;;;;6.95;6.65;;;;;;;24.71;42.07;100508.38;5031532;28;20171;-61
2022/05/24 03:59:32;;;;;;;7.22;6.93;;;;;;;26.77;37.60;100503.03;5030607;28;20048;-62
2022/05/24 04:01:58;;;;;;;7.15;6.85;;;;;;;27.09;37.03;100503.34;5028593;28;20035;-64
2022/05/24 04:04:24;;;;;;;7.03;6.72;;;;;;;27.48;36.63;100505.19;5034011;28;20033;-62
2022/05/24 04:06:49;;;;;;;6.95;6.65;;;;;;;27.16;35.72;100512.00;5030576;28;20029;-62
2022/05/24 04:09:14;;;;;;;7.05;6.75;;;;;;;27.55;35.44;100511.13;5028507;28;20018;-63
2022/05/24 04:11:40;;;;;;;7.00;6.70;;;;;;;26.25;37.18;100516.09;5030586;28;20550;-63
2022/05/24 04:14:06;;;;;;;7.10;6.80;;;;;;;27.12;36.22;100513.69;5033357;28;20033;-63
2022/05/24 04:16:31;;;;;;;6.90;6.60;;;;;;;27.47;35.14;100517.16;5032893;28;20041;-63
2022/05/24 04:18:57;;;;;;;7.20;6.90;;;;;;;27.29;35.76;100510.53;5031851;28;20033;-62
2022/05/24 04:21:23;;;;;;;6.90;6.60;;;;;;;27.90;34.11;100520.03;5032655;28;20061;-62
2022/05/24 04:23:48;;;;;;;7.03;6.72;;;;;;;27.61;35.33;100512.66;5032738;28;20075;-62
2022/05/24 04:26:14;;;;;;;7.30;7.00;;;;;;;28.14;33.91;100518.13;5032863;28;20031;-62
2022/05/24 04:28:39;;;;;;;6.95;6.65;;;;;;;28.99;32.72;100511.75;5032243;28;20540;-64
2022/05/24 04:31:05;;;;;;;7.28;6.97;;;;;;;27.76;34.77;100518.00;5033340;28;20021;-62
2022/05/24 04:33:31;;;;;;;7.30;7.00;;;;;;;27.84;34.55;100519.28;5027957;28;20452;-62
2022/05/24 04:35:56;;;;;;;7.07;6.78;;;;;;;27.72;34.06;100516.97;5029908;28;20040;-63
2022/05/24 04:38:23;;;;;;;7.20;6.90;;;;;;;28.30;33.59;100521.50;5037932;28;20060;-63
2022/05/24 04:43:32;;;;;;;7.22;6.93;;;;;;;28.46;33.21;100513.91;5027156;28;20120;-63
2022/05/24 04:45:58;;;;;;;7.30;7.00;;;;;;;28.68;32.54;100516.84;5030940;28;20109;-62
2022/05/24 04:48:24;;;;;;;7.07;6.78;;;;;;;29.32;31.78;100512.56;5032206;28;20021;-61
2022/05/24 04:50:54;;;;;;;7.20;6.90;;;;;;;27.45;33.81;100509.28;5024693;28;20469;-62
2022/05/24 04:53:20;;;;;;;7.30;7.00;;;;;;;28.59;32.63;100522.16;5032393;28;20061;-63
2022/05/24 04:55:48;;;;;;;7.25;6.95;;;;;;;29.30;32.02;100519.44;5031366;28;20021;-63
2022/05/24 04:58:15;;;;;;;7.30;7.00;;;;;;;29.17;31.92;100518.31;5014530;28;20065;-63
2022/05/24 05:00:41;;;;;;;7.30;7.00;;;;;;;29.36;32.08;100521.78;5026241;28;20037;-62
2022/05/24 05:03:13;;;;;;;7.28;6.97;;;;;;;27.96;33.31;100525.13;5031846;28;20025;-64
2022/05/24 05:05:39;;;;;;;7.20;6.90;;;;;;;28.35;33.16;100526.84;5032011;28;20087;-65
2022/05/24 05:08:06;;;;;;;7.05;6.75;;;;;;;28.79;32.35;100518.34;5032103;28;20125;-62
2022/05/24 05:10:34;;;;;;;7.40;7.10;;;;;;;29.84;30.94;100517.94;5031637;28;20032;-61
2022/05/24 05:13:06;;;;;;;7.22;6.93;;;;;;;29.82;30.89;100523.72;5028736;28;20029;-62
2022/05/24 05:15:37;;;;;;;7.38;7.07;;;;;;;30.41;29.67;100523.91;5031788;28;20108;-62
2022/05/24 05:18:08;;;;;;;7.50;7.20;;;;;;;31.44;28.51;100525.88;5028051;28;20028;-62
2022/05/24 05:20:39;;;;;;;7.40;7.10;;;;;;;31.05;28.81;100522.69;5031905;28;20439;-63
2022/05/24 05:23:16;;;;;;;7.50;7.20;;;;;;;29.97;29.91;100523.41;5031376;28;20432;-63
2022/05/24 05:25:47;;;;;;;7.40;7.10;;;;;;;31.17;29.42;100529.53;5031805;28;20104;-62
2022/05/24 05:28:14;;;;;;;7.50;7.20;;;;;;;31.09;28.84;100529.16;5031143;28;20565;-63
2022/05/24 05:33:24;;;;;;;7.38;7.07;;;;;;;31.02;28.87;100530.72;5032151;28;20044;-64
2022/05/24 05:35:50;;;;;;;7.50;7.20;;;;;;;31.12;28.60;100527.72;5031445;28;20029;-63
2022/05/24 05:38:15;;;;;;;6.93;6.63;;;;;;;32.21;27.63;100530.06;5031847;28;20029;-62
2022/05/24 05:40:41;;;;;;;7.32;7.03;;;;;;;31.77;27.16;100537.31;5031806;28;20027;-62
2022/05/24 05:43:07;;;;;;;7.40;7.10;;;;;;;32.29;27.03;100546.53;5031805;28;20049;-61
2022/05/24 05:45:33;;;;;;;7.35;7.05;;;;;;;30.87;29.05;100540.13;5027962;28;20432;-62
2022/05/24 05:47:59;;;;;;;7.32;7.03;;;;;;;30.74;28.92;100547.25;5031984;28;20135;-63
2022/05/24 05:50:24;;;;;;;7.30;7.00;;;;;;;31.91;28.28;100540.78;5020842;28;20018;-62
2022/05/24 05:52:50;;;;;;;7.20;6.90;;;;;;;31.00;28.54;100547.47;5013868;28;20358;-64
2022/05/24 05:55:16;;;;;;;7.00;6.70;;;;;;;28.70;31.87;100544.66;5015898;28;20093;-64
2022/05/24 05:57:41;;;;;;;7.10;6.80;;;;;;;31.84;27.75;100545.91;5015428;28;20030;-64
2022/05/24 06:00:08;;;;;;;7.20;6.90;;;;;;;33.29;26.06;100551.13;5024242;28;21247;-64
2022/05/24 06:02:35;;;;;;;7.40;7.10;;;;;;;32.91;26.14;100548.28;5022172;28;20113;-62
2022/05/24 06:05:01;;;;;;;6.88;6.57;;;;;;;33.33;25.71;100548.53;5029298;28;20029;-61
2022/05/24 06:07:26;;;;;;;7.10;6.80;;;;;;;33.63;24.95;100543.94;5031584;28;20086;-63
2022/05/24 06:09:52;;;;;;;7.43;7.13;;;;;;;33.75;25.11;100542.13;5030472;28;20044;-62
2022/05/24 06:12:18;;;;;;;7.25;6.95;;;;;;;33.25;24.86;100537.22;5031033;28;20455;-62
2022/05/24 06:14:43;;;;;;;7.15;6.85;;;;;;;30.28;28.05;100539.22;5031386;28;20438;-62
2022/05/24 06:17:10;;;;;;;7.13;6.82;;;;;;;28.05;32.64;100538.94;5031392;28;20397;-62
2022/05/24 06:19:36;;;;;;;7.30;7.00;;;;;;;28.70;30.56;100538.38;5031182;28;20030;-62
2022/05/24 06:22:01;;;;;;;7.18;6.88;;;;;;;28.00;31.45;100528.91;5031442;28;20397;-62
2022/05/24 06:24:27;;;;;;;7.20;6.90;;;;;;;28.64;30.84;100534.91;5034797;28;20025;-62
2022/05/24 06:26:52;;;;;;;7.22;6.93;;;;;;;29.32;30.97;100534.44;5035071;28;20037;-62
2022/05/24 06:29:18;;;;;;;7.35;7.05;;;;;;;33.51;25.05;100531.69;5045713;28;20017;-62
2022/05/24 06:31:44;;;;;;;7.22;6.93;;;;;;;31.72;27.12;100540.19;5035004;28;20083;-62
2022/05/24 06:34:12;;;;;;;7.32;7.03;;;;;;;32.38;25.78;100549.31;5033721;28;20515;-62
2022/05/24 06:36:38;;;;;;;7.20;6.90;;;;;;;32.16;25.84;100539.22;5034611;28;20025;-62
2022/05/24 06:39:04;;;;;;;7.30;7.00;;;;;;;25.31;34.29;100539.38;5034923;28;20392;-62
2022/05/24 06:41:29;;;;;;;7.30;7.00;;;;;;;25.96;32.59;100540.41;5025743;28;20032;-62
2022/05/24 06:43:55;;;;;;;7.22;6.93;;;;;;;23.96;36.32;100543.88;5025953;28;20061;-61
2022/05/24 06:46:21;;;;;;;7.30;7.00;;;;;;;23.69;37.20;100538.56;5034770;28;20453;-62
2022/05/24 06:48:46;;;;;;;7.10;6.80;;;;;;;23.49;37.82;100538.38;5034663;28;20105;-61
2022/05/24 06:51:15;;;;;;;6.95;6.65;;;;;;;26.49;33.26;100542.66;5034890;28;20037;-61
2022/05/24 06:53:43;;;;;;;7.30;7.00;;;;;;;30.31;27.92;100546.00;5034366;28;20057;-62
2022/05/24 06:56:10;;;;;;;7.10;6.80;;;;;;;29.68;28.90;100548.31;5039576;28;20078;-63
2022/05/24 06:58:36;;;;;;;7.28;6.97;;;;;;;31.20;26.20;100548.09;5036029;28;20029;-61
2022/05/24 07:03:47;;;;;;;7.30;7.00;;;;;;;27.27;32.08;100542.72;5022443;28;20171;-62
2022/05/24 07:06:15;;;;;;;7.10;6.80;;;;;;;27.08;31.74;100533.59;5034229;28;20497;-62
2022/05/24 07:08:44;;;;;;;6.97;6.68;;;;;;;30.08;27.99;100550.56;5033972;28;20461;-63
2022/05/24 07:11:10;;;;;;;7.10;6.80;;;;;;;29.00;28.74;100548.06;5038752;28;20444;-61
2022/05/24 07:13:37;;;;;;;6.90;6.60;;;;;;;29.33;28.47;100548.91;5033195;28;20018;-61
2022/05/24 07:16:02;;;;;;;6.90;6.60;;;;;;;26.26;33.77;100547.63;5034180;28;20030;-62
2022/05/24 07:18:28;;;;;;;7.07;6.78;;;;;;;29.06;29.24;100536.78;5034477;28;20025;-62
2022/05/24 07:20:54;;;;;;;7.00;6.70;;;;;;;28.83;29.50;100538.47;5034152;28;20021;-60
2022/05/24 07:23:24;;;;;;;6.63;6.32;;;;;;;27.00;32.45;100540.44;5034086;28;20485;-60
2022/05/24 07:25:51;;;;;;;7.05;6.75;;;;;;;30.41;27.55;100551.28;5033008;28;20029;-61
2022/05/24 07:28:17;;;;;;;6.90;6.60;;;;;;;31.14;26.02;100549.31;5033914;28;20025;-62
2022/05/24 07:30:43;;;;;;;7.10;6.80;;;;;;;32.01;24.86;100543.22;5021144;28;20041;-63
2022/05/24 07:33:09;;;;;;;7.05;6.75;;;;;;;32.49;24.40;100547.09;5031834;28;20540;-62
2022/05/24 07:35:35;;;;;;;7.40;7.10;;;;;;;31.67;24.88;100535.66;5033683;28;20108;-61
2022/05/24 07:38:00;;;;;;;7.50;7.20;;;;;;;30.92;25.32;100539.16;5033516;28;20029;-61
2022/05/24 07:46:01;;;;;;;6.97;6.68;;;;;;;30.54;26.05;100532.06;5033569;28;20060;-61
2022/05/24 07:48:26;;;;;;;7.10;6.80;;;;;;;31.04;26.08;100529.28;5033486;28;20555;-62
2022/05/24 07:50:52;;;;;;;7.20;6.90;;;;;;;27.48;29.72;100525.09;5033470;28;20041;-61
2022/05/24 07:53:18;;;;;;;6.95;6.65;;;;;;;27.54;32.19;100529.38;5031784;28;20025;-62
2022/05/24 07:55:44;;;;;;;7.07;6.78;;;;;;;30.67;27.06;100535.91;5033319;28;20029;-62
2022/05/24 07:58:11;;;;;;;7.10;6.80;;;;;;;29.62;26.96;100526.84;5033030;28;20033;-61
2022/05/24 08:00:37;;;;;;;7.10;6.80;;;;;;;27.10;31.38;100515.91;5033078;28;20489;-62
2022/05/24 08:03:05;;;;;;;6.90;6.60;;;;;;;26.13;32.99;100515.59;5032794;28;20036;-62
2022/05/24 08:05:32;;;;;;;7.00;6.70;;;;;;;25.76;34.32;100524.94;5032994;28;20017;-63
2022/05/24 08:07:58;;;;;;;7.00;6.70;;;;;;;26.49;33.54;100520.91;5033223;28;20485;-62
2022/05/24 08:10:24;;;;;;;7.20;6.90;;;;;;;25.70;34.37;100525.19;5033416;28;20048;-63
2022/05/24 08:12:50;;;;;;;6.90;6.60;;;;;;;26.21;33.63;100525.06;5033454;28;20432;-61
2022/05/24 08:15:15;;;;;;;7.00;6.70;;;;;;;25.90;33.30;100531.44;5032950;28;20029;-62
2022/05/24 08:17:41;;;;;;;6.88;6.57;;;;;;;23.70;35.97;100528.53;5032774;28;20527;-63
2022/05/24 08:20:10;;;;;;;6.85;6.55;;;;;;;24.98;32.93;100522.53;5032860;28;20711;-62
2022/05/24 08:22:37;;;;;;;7.00;6.70;;;;;;;26.66;30.84;100522.16;5033032;28;20036;-62
2022/05/24 08:25:05;;;;;;;6.72;6.43;;;;;;;26.21;32.37;100530.50;5032883;28;20120;-62
2022/05/24 08:27:30;;;;;;;6.85;6.55;;;;;;;26.47;32.73;100523.09;5032632;28;20021;-62
2022/05/24 08:29:57;;;;;;;6.95;6.65;;;;;;;26.74;32.30;100528.91;5032550;28;20021;-62
2022/05/24 08:32:23;;;;;;;6.90;6.60;;;;;;;26.76;32.03;100520.47;5032349;28;20034;-62
2022/05/24 08:34:48;;;;;;;6.90;6.60;;;;;;;26.94;30.80;100520.59;5032392;28;20025;-62
2022/05/24 08:37:14;;;;;;;6.80;6.50;;;;;;;25.92;31.83;100523.00;5032432;28;20104;-62
2022/05/24 08:39:39;;;;;;;6.60;6.30;;;;;;;27.78;28.49;100532.16;5032684;28;20029;-61
2022/05/24 08:42:17;;;;;;;6.80;6.50;;;;;;;27.52;28.73;100517.13;5026833;28;20021;-63
2022/05/24 08:50:32;;;;;;;6.80;6.50;;;;;;;25.79;32.78;100508.13;5031321;28;20040;-61
2022/05/24 08:53:04;;;;;;;6.88;6.57;;;;;;;24.35;34.21;100504.75;5032265;28;20078;-62
2022/05/24 08:55:30;;;;;;;6.75;6.45;;;;;;;24.47;34.48;100506.16;5019549;28;20056;-61
2022/05/24 08:57:58;;;;;;;6.75;6.45;;;;;;;25.18;33.29;100502.72;5031930;28;20485;-61
2022/05/24 09:00:36;;;;;;;6.85;6.55;;;;;;;24.71;34.62;100497.53;5030263;28;20067;-62
2022/05/24 09:03:07;;;;;;;6.80;6.50;;;;;;;24.57;34.74;100499.13;5031748;28;20032;-61
2022/05/24 09:05:38;;;;;;;6.57;6.28;;;;;;;24.99;34.93;100491.59;5031554;28;20025;-62
2022/05/24 09:08:06;;;;;;;6.63;6.32;;;;;;;24.92;34.45;100491.03;5030672;28;20428;-61
2022/05/24 09:10:47;;;;;;;6.68;6.38;;;;;;;23.83;37.02;100495.56;5032001;28;20117;-62
2022/05/24 09:13:19;;;;;;;6.85;6.55;;;;;;;24.18;36.17;100485.97;5020445;28;20026;-61
2022/05/24 09:15:50;;;;;;;6.90;6.60;;;;;;;24.07;36.26;100495.94;5032721;28;20116;-62
2022/05/24 09:18:26;;;;;;;6.50;6.20;;;;;;;24.01;36.58;100491.59;5031545;28;20029;-61
2022/05/24 09:20:52;;;;;;;6.90;6.60;;;;;;;23.40;37.53;100489.31;5019219;28;20436;-61
2022/05/24 09:24:09;;;;;;;6.80;6.50;;;;;;;23.01;38.10;100480.66;5031542;28;20033;-62
2022/05/24 09:27:07;;;;;;;6.78;6.47;;;;;;;21.19;41.90;100477.28;5015813;28;20119;-62
2022/05/24 09:29:35;;;;;;;6.82;6.53;;;;;;;22.74;38.85;100483.34;5031799;28;20362;-62
2022/05/24 09:32:09;;;;;;;6.90;6.60;;;;;;;22.79;39.26;100483.41;5037988;28;20104;-61
2022/05/24 09:34:37;;;;;;;6.60;6.30;;;;;;;23.38;38.26;100477.94;5027920;28;20087;-62
2022/05/24 09:37:10;;;;;;;6.90;6.60;;;;;;;24.08;36.29;100481.31;5031769;28;20037;-62
2022/05/24 09:39:39;;;;;;;6.68;6.38;;;;;;;23.24;37.53;100476.75;5031453;28;20091;-62
2022/05/24 09:42:13;;;;;;;6.82;6.53;;;;;;;23.51;37.04;100481.28;5031717;28;20112;-61
2022/05/24 09:44:58;;;;;;;6.60;6.30;;;;;;;23.30;37.17;100473.03;5034678;28;20041;-62
2022/05/24 09:48:01;;;;;;;6.78;6.47;;;;;;;24.13;35.67;100462.38;5036812;28;20116;-61
2022/05/24 09:50:31;;;;;;;6.88;6.57;;;;;;;24.91;34.12;100472.31;5029848;28;20026;-61
2022/05/24 09:53:03;;;;;;;6.78;6.47;;;;;;;25.06;34.99;100465.03;5020407;28;20397;-62
2022/05/24 09:55:37;;;;;;;6.75;6.45;;;;;;;25.06;34.18;100465.03;5023485;28;20013;-61
2022/05/24 09:58:26;;;;;;;6.70;6.40;;;;;;;23.81;34.30;100467.94;5034130;28;20029;-62
2022/05/24 10:00:53;;;;;;;6.90;6.60;;;;;;;23.81;33.70;100467.13;5032497;28;20106;-63
2022/05/24 10:03:26;;;;;;;6.95;6.65;;;;;;;24.41;32.35;100463.84;5029901;28;20460;-61
2022/05/24 10:06:09;;;;;;;6.63;6.32;;;;;;;24.50;32.61;100459.50;5035414;28;20485;-62
2022/05/24 10:08:53;;;;;;;6.70;6.40;;;;;;;25.41;30.78;100465.22;5035362;28;20381;-61
2022/05/24 10:11:22;;;;;;;6.80;6.50;;;;;;;24.40;32.54;100461.41;5035379;28;20022;-62
2022/05/24 10:14:13;;;;;;;6.90;6.60;;;;;;;24.43;32.73;100455.44;5027181;28;20034;-60
2022/05/24 10:16:50;;;;;;;6.65;6.35;;;;;;;20.79;40.21;100453.16;5025251;28;20044;-62
2022/05/24 10:19:21;;;;;;;6.53;6.22;;;;;;;22.14;37.51;100461.91;5035337;28;20076;-62
2022/05/24 10:22:28;;;;;;;6.60;6.30;;;;;;;21.33;39.69;100461.59;5035179;28;20373;-62
2022/05/24 10:25:08;;;;;;;6.90;6.60;;;;;;;21.25;39.73;100457.41;5023358;28;20497;-61
2022/05/24 10:27:52;;;;;;;6.80;6.50;;;;;;;21.23;39.29;100454.16;5035257;28;20040;-62
2022/05/24 10:30:23;;;;;;;6.60;6.30;;;;;;;21.67;38.89;100460.50;5034845;28;20480;-63
2022/05/24 10:39:55;;;;;;;6.90;6.60;;;;;;;20.72;39.93;100449.81;5031037;28;20091;-62
2022/05/24 10:42:51;;;;;;;7.95;7.65;;;;;;;21.34;40.13;100452.44;5032364;28;20116;-65
2022/05/24 10:45:21;;;;;;;6.63;6.32;;;;;;;21.05;38.66;100444.41;5027336;28;20045;-65
2022/05/24 10:47:55;;;;;;;7.00;6.70;;;;;;;21.99;38.54;100438.19;5031422;28;20129;-65
2022/05/24 10:50:34;;;;;;;6.82;6.53;;;;;;;21.59;37.08;100436.59;5025527;28;20060;-66
2022/05/24 10:53:26;;;;;;;6.80;6.50;;;;;;;21.31;38.45;100436.75;5030115;28;20033;-64
2022/05/24 10:56:34;;;;;;;7.82;7.53;;;;;;;22.00;37.51;100432.53;5017274;28;20112;-66
2022/05/24 10:59:48;;;;;;;6.80;6.50;;;;;;;22.46;36.23;100435.75;5022380;28;20041;-64
2022/05/24 11:02:44;;;;;;;6.88;6.57;;;;;;;22.51;36.04;100435.00;5024456;28;20045;-64
2022/05/24 11:05:16;;;;;;;6.80;6.50;;;;;;;22.36;35.47;100440.25;5032984;28;20385;-64
2022/05/24 11:07:42;;;;;;;6.70;6.40;;;;;;;22.58;35.43;100438.31;5031933;28;20033;-63
2022/05/24 11:10:23;;;;;;;6.78;6.47;;;;;;;22.76;34.65;100432.50;5030525;28;20040;-64
2022/05/24 11:12:51;;;;;;;7.55;7.25;;;;;;;22.70;35.02;100435.44;5024351;28;20718;-64
2022/05/24 11:15:36;;;;;;;6.80;6.50;;;;;;;22.59;34.66;100435.34;5024161;28;20029;-65
2022/05/24 11:18:16;;;;;;;6.82;6.53;;;;;;;22.65;34.12;100447.03;5028413;28;20112;-63
2022/05/24 11:21:07;;;;;;;6.70;6.40;;;;;;;22.31;34.16;100433.72;5033651;28;20080;-64
2022/05/24 11:23:36;;;;;;;6.93;6.63;;;;;;;22.43;33.52;100436.28;5030820;28;20111;-62
2022/05/24 11:26:11;;;;;;;7.10;6.80;;;;;;;22.09;34.16;100429.41;5025443;28;20018;-64
2022/05/24 11:28:46;;;;;;;7.20;6.90;;;;;;;23.24;33.29;100447.00;5021269;28;20025;-65
2022/05/24 11:31:40;;;;;;;7.20;6.90;;;;;;;22.93;33.36;100434.31;5028548;28;20033;-64
2022/05/24 11:34:20;;;;;;;6.95;6.65;;;;;;;22.44;33.56;100437.91;5038109;28;20021;-65
2022/05/24 11:36:59;;;;;;;6.70;6.40;;;;;;;22.62;33.62;100431.31;5033940;28;20033;-64
2022/05/24 11:39:29;;;;;;;7.10;6.80;;;;;;;22.67;33.50;100427.84;5031846;28;20026;-64
2022/05/24 11:42:20;;;;;;;6.72;6.43;;;;;;;23.28;32.26;100437.28;5030047;28;20022;-64
2022/05/24 11:44:46;;;;;;;7.20;6.90;;;;;;;23.26;32.35;100431.28;5029408;28;20049;-65
2022/05/24 11:47:50;;;;;;;6.95;6.65;;;;;;;24.04;31.62;100415.19;5032774;28;20087;-66
2022/05/24 11:50:37;;;;;;;7.28;6.97;;;;;;;23.30;32.55;100420.78;5027917;28;20038;-64
2022/05/24 11:53:18;;;;;;;6.63;6.32;;;;;;;22.55;33.70;100414.50;5036077;28;20124;-64
2022/05/24 11:55:54;;;;;;;6.90;6.60;;;;;;;22.61;32.86;100416.16;5032897;28;20102;-63
2022/05/24 11:58:19;;;;;;;6.95;6.65;;;;;;;22.34;33.17;100418.91;5036423;28;20040;-64
2022/05/24 12:01:30;;;;;;;6.95;6.65;;;;;;;22.54;32.95;100394.72;5032817;28;20033;-66
2022/05/24 12:10:20;;;;;;;6.78;6.47;;;;;;;22.50;33.35;100393.63;5023276;28;20063;-64
2022/05/24 12:13:13;;;;;;;6.72;6.43;;;;;;;22.82;33.23;100388.22;5022983;28;20059;-65
2022/05/24 12:15:40;;;;;;;6.63;6.32;;;;;;;22.64;33.57;100391.31;5018375;28;20038;-65
2022/05/24 12:18:06;;;;;;;7.00;6.70;;;;;;;23.45;32.03;100388.38;5028807;28;20079;-65
2022/05/24 12:20:34;;;;;;;6.80;6.50;;;;;;;23.50;31.92;100390.28;5021483;28;20029;-64
2022/05/24 12:23:13;;;;;;;6.90;6.60;;;;;;;23.70;31.03;100385.00;5032721;28;20548;-66
2022/05/24 12:26:07;;;;;;;6.63;6.32;;;;;;;23.38;31.37;100374.25;5032375;28;20037;-65
2022/05/24 12:28:36;;;;;;;7.10;6.80;;;;;;;23.41;30.26;100379.94;5027490;28;20503;-65
2022/05/24 12:31:25;;;;;;;6.90;6.60;;;;;;;23.67;30.08;100372.00;5036677;28;20037;-64